Weather History for Stigler, OK

Change the Weather History Date:

Wednesday, October 23, 2013

  Actual Average (KJSV) Record (KJSV)
Temperature  
Mean Temperature 52 °F -  
Max Temperature 68 °F 71 °F 91 °F (2003)
Min Temperature 37 °F 50 °F 27 °F (1952)
Degree Days  
Heating Degree Days 12    
Growing Degree Days 2 (Base 50)    
Moisture  
Dew Point 39 °F    
Average Humidity 64    
Maximum Humidity 100    
Minimum Humidity 26    
Precipitation  
Precipitation 0.00 in - - ()
Sea Level Pressure  
Sea Level Pressure 30.11 in    
Wind  
Wind Speed 2 mph (ESE)    
Max Wind Speed 9 mph    
Max Gust Speed -    
Visibility 10 miles    
Events      
Averages and records for this station are not official NWS values.
T = Trace of Precipitation, MM = Missing Value Source: NWS Daily Summary

Daily Weather History Graph

Daily Weather History Graph

Search for Another Location

Airport:

Trip Planner

Search our weather history database for the weather conditions in past years. The results will help you decide how hot, cold, wet, or windy it might be!

Date:

Astronomy

Oct. 23, 2013 Rise Set
Actual Time 7:33 AM CDT 6:35 PM CDT
Civil Twilight 7:07 AM CDT 7:00 PM CDT
Nautical Twilight 6:38 AM CDT 7:30 PM CDT
Astronomical Twilight 6:08 AM CDT 8:00 PM CDT
Moon 10:12 PM CDT (10/23) 11:46 AM CDT (10/23)
Length of Visible Light 11h 53m
Length of Day
11h 01m
Waning Gibbous, 79% of the Moon is Illuminated
Oct 23
Waning Gibbous
Oct 26
Last Quarter
Nov 3
New
Nov 9
First Quarter
Nov 17
Full

Hourly Weather History & Observations

Time (CDT) Temp. Windchill Dew Point Humidity Pressure Visibility Wind Dir Wind Speed Gust Speed Precip Events Conditions
12:15 AM 46.4 °F - 42.8 °F 87% 30.07 in 10.0 mi Calm Calm - N/A   Unknown
12:35 AM 46.4 °F 45.2 °F 41.0 °F 81% 30.07 in 10.0 mi SW 3.5 mph - N/A   Unknown
12:55 AM 44.6 °F 43.1 °F 41.0 °F 87% 30.08 in 10.0 mi SSW 3.5 mph - N/A   Unknown
1:15 AM 44.6 °F - 39.2 °F 81% 30.08 in 10.0 mi Calm Calm - N/A   Unknown
1:35 AM 44.6 °F - 42.8 °F 93% 30.08 in 10.0 mi Calm Calm - N/A   Unknown
1:55 AM 44.6 °F - 41.0 °F 87% 30.09 in 10.0 mi Calm Calm - N/A   Unknown
2:15 AM 42.8 °F - 41.0 °F 93% 30.09 in 10.0 mi Calm Calm - N/A   Unknown
2:35 AM 42.8 °F - 39.2 °F 87% 30.10 in 10.0 mi Calm Calm - N/A   Unknown
2:55 AM 42.8 °F - 41.0 °F 93% 30.10 in 10.0 mi Calm Calm - N/A   Unknown
3:15 AM 42.8 °F - 41.0 °F 93% 30.10 in 10.0 mi Calm Calm - N/A   Unknown
3:35 AM 41.0 °F 39.0 °F 39.2 °F 93% 30.10 in 10.0 mi SSW 3.5 mph - N/A   Unknown
3:55 AM 41.0 °F 38.0 °F 39.2 °F 93% 30.11 in 10.0 mi SW 4.6 mph - N/A   Unknown
4:15 AM 42.8 °F - 41.0 °F 93% 30.11 in 10.0 mi Calm Calm - N/A   Unknown
4:35 AM 44.6 °F 43.1 °F 41.0 °F 87% 30.11 in 10.0 mi NNE 3.5 mph - N/A   Unknown
4:55 AM 41.0 °F - 39.2 °F 93% 30.12 in 10.0 mi Calm Calm - N/A   Unknown
5:15 AM 41.0 °F 38.0 °F 39.2 °F 93% 30.13 in 10.0 mi NNE 4.6 mph - N/A   Unknown
5:35 AM 41.0 °F 39.0 °F 39.2 °F 93% 30.13 in 10.0 mi NNE 3.5 mph - N/A   Unknown
5:55 AM 39.2 °F 37.0 °F 37.4 °F 93% 30.14 in 10.0 mi NNE 3.5 mph - N/A   Unknown
6:15 AM 39.2 °F 35.0 °F 39.2 °F 100% 30.15 in 10.0 mi NNE 5.8 mph - N/A   Unknown
6:35 AM 39.2 °F - 37.4 °F 93% 30.16 in 10.0 mi Calm Calm - N/A   Unknown
6:55 AM 41.0 °F 38.0 °F 39.2 °F 93% 30.16 in 10.0 mi ENE 4.6 mph - N/A   Unknown
7:15 AM 39.2 °F - 37.4 °F 93% 30.17 in 10.0 mi Calm Calm - N/A   Unknown
7:35 AM 37.4 °F - 35.6 °F 93% 30.18 in 10.0 mi Calm Calm - N/A   Unknown
7:55 AM 39.2 °F - 37.4 °F 93% 30.19 in 10.0 mi Calm Calm - N/A   Unknown
8:15 AM 42.8 °F - 41.0 °F 93% 30.19 in 10.0 mi Calm Calm - N/A   Unknown
8:35 AM 46.4 °F - 42.8 °F 87% 30.19 in 10.0 mi Calm Calm - N/A   Unknown
8:55 AM 48.2 °F - 41.0 °F 76% 30.19 in 10.0 mi ESE 3.5 mph - N/A   Unknown
9:15 AM 50.0 °F - 39.2 °F 66% 30.19 in 8.0 mi Calm Calm - N/A   Unknown
9:35 AM 51.8 °F - 39.2 °F 62% 30.19 in 10.0 mi Calm Calm - N/A   Unknown
9:55 AM 55.4 °F - 39.2 °F 54% 30.19 in 10.0 mi ESE 4.6 mph - N/A   Unknown
10:15 AM 55.4 °F - 37.4 °F 51% 30.19 in 9.0 mi East 3.5 mph - N/A   Unknown
10:35 AM 57.2 °F - 35.6 °F 44% 30.19 in 10.0 mi NE 6.9 mph - N/A   Unknown
10:55 AM 59.0 °F - 32.0 °F 36% 30.18 in 10.0 mi ENE 5.8 mph - N/A   Unknown
11:15 AM 59.0 °F - 33.8 °F 39% 30.18 in 10.0 mi East 5.8 mph - N/A   Unknown
11:35 AM 59.0 °F - 30.2 °F 34% 30.18 in 10.0 mi NE 4.6 mph - N/A   Unknown
11:55 AM 60.8 °F - 30.2 °F 31% 30.18 in 10.0 mi ENE 4.6 mph - N/A   Unknown
12:15 PM 62.6 °F - 30.2 °F 30% 30.17 in 10.0 mi East 3.5 mph - N/A   Unknown
12:35 PM 62.6 °F - 28.4 °F 27% 30.17 in 10.0 mi Calm Calm - N/A   Unknown
12:55 PM 64.4 °F - 28.4 °F 26% 30.16 in 10.0 mi Calm Calm - N/A   Unknown
1:15 PM 62.6 °F - 28.4 °F 27% 30.14 in 10.0 mi Calm Calm - N/A   Unknown
1:35 PM 64.4 °F - 28.4 °F 26% 30.13 in 10.0 mi SSE 3.5 mph - N/A   Unknown
1:55 PM 64.4 °F - 30.2 °F 28% 30.12 in 10.0 mi ENE 3.5 mph - N/A   Unknown
2:15 PM 66.2 °F - 32.0 °F 28% 30.11 in 10.0 mi SSE 3.5 mph - N/A   Unknown
2:35 PM 66.2 °F - 32.0 °F 28% 30.10 in 10.0 mi ESE 3.5 mph - N/A   Unknown
2:55 PM 66.2 °F - 32.0 °F 28% 30.10 in 10.0 mi SE 4.6 mph - N/A   Unknown
3:15 PM 68.0 °F - 32.0 °F 26% 30.09 in 10.0 mi SSE 5.8 mph - N/A   Unknown
3:35 PM 68.0 °F - 32.0 °F 26% 30.08 in 10.0 mi Calm Calm - N/A   Unknown
3:55 PM 68.0 °F - 33.8 °F 28% 30.07 in 10.0 mi SE 8.1 mph - N/A   Unknown
4:15 PM 68.0 °F - 33.8 °F 28% 30.06 in 10.0 mi SE 8.1 mph - N/A   Unknown
4:35 PM 68.0 °F - 35.6 °F 30% 30.06 in 10.0 mi South 5.8 mph - N/A   Unknown
4:55 PM 68.0 °F - 37.4 °F 33% 30.05 in 10.0 mi SSE 6.9 mph - N/A   Unknown
5:15 PM 68.0 °F - 37.4 °F 33% 30.04 in 10.0 mi SSE 9.2 mph - N/A   Unknown
5:35 PM 68.0 °F - 39.2 °F 35% 30.03 in 10.0 mi South 6.9 mph - N/A   Unknown
5:55 PM 66.2 °F - 39.2 °F 37% 30.03 in 10.0 mi South 8.1 mph - N/A   Unknown
6:15 PM 64.4 °F - 41.0 °F 42% 30.02 in 10.0 mi South 5.8 mph - N/A   Unknown
6:35 PM 62.6 °F - 41.0 °F 45% 30.02 in 10.0 mi SSE 4.6 mph - N/A   Unknown
6:55 PM 59.0 °F - 44.6 °F 59% 30.02 in 10.0 mi ESE 4.6 mph - N/A   Unknown
7:15 PM 57.2 °F - 44.6 °F 63% 30.02 in 10.0 mi SE 4.6 mph - N/A   Unknown
7:35 PM 57.2 °F - 44.6 °F 63% 30.03 in 10.0 mi ESE 4.6 mph - N/A   Unknown
7:55 PM 55.4 °F - 46.4 °F 72% 30.03 in 10.0 mi SE 4.6 mph - N/A   Unknown
8:15 PM 55.4 °F - 46.4 °F 72% 30.03 in 10.0 mi Calm Calm - N/A   Unknown
8:35 PM 55.4 °F - 46.4 °F 72% 30.04 in 10.0 mi East 3.5 mph - N/A   Unknown
8:55 PM 53.6 °F - 44.6 °F 72% 30.04 in 10.0 mi NE 3.5 mph - N/A   Unknown
9:15 PM 53.6 °F - 46.4 °F 77% 30.05 in 7.0 mi East 3.5 mph - N/A   Unknown
9:35 PM 53.6 °F - 46.4 °F 77% 30.05 in 10.0 mi East 5.8 mph - N/A   Unknown
9:55 PM 55.4 °F - 46.4 °F 72% 30.06 in 10.0 mi East 3.5 mph - N/A   Unknown
10:15 PM 53.6 °F - 44.6 °F 72% 30.07 in 10.0 mi East 3.5 mph - N/A   Unknown
10:35 PM 53.6 °F - 44.6 °F 72% 30.07 in 10.0 mi Calm Calm - N/A   Unknown
10:55 PM 55.4 °F - 44.6 °F 67% 30.08 in 10.0 mi ENE 5.8 mph - N/A   Unknown
11:15 PM 53.6 °F - 44.6 °F 72% 30.08 in 10.0 mi NE 4.6 mph - N/A   Unknown
11:35 PM 53.6 °F - 42.8 °F 67% 30.08 in 10.0 mi NE 6.9 mph - N/A   Unknown
11:55 PM 53.6 °F - 42.8 °F 67% 30.08 in 10.0 mi ENE 3.5 mph - N/A   Unknown